Time;durP1;ratioP1;P1;durP2;ratioP2;P2;SDS_P1;SDS_P2;PMS_P1;PMS_P2;Temp;Humidity;BMP_temperature;BMP_pressure;BME280_temperature;BME280_humidity;BME280_pressure;Samples;Min_cycle;Max_cycle;Signal;HPM_P1;HPM_P2
2022/11/24 00:00:19;;;;;;;;;;;6.00;85.60;;;-151.14;100.00;62537.16;5095406;28;19927;-80
2022/11/24 00:02:46;;;;;;;;;;;6.00;85.60;;;-151.14;100.00;62537.16;5095397;28;20223;-81
2022/11/24 00:05:14;;;;;;;;;;;6.00;85.50;;;-151.14;100.00;62537.16;5094927;28;20120;-80
2022/11/24 00:07:42;;;;;;;;;;;6.00;85.50;;;-151.14;100.00;62537.16;5078502;28;19926;-80
2022/11/24 00:10:10;;;;;;;;;;;6.00;85.60;;;-151.14;100.00;62537.16;5095179;28;19927;-80
2022/11/24 00:12:38;;;;;;;;;;;6.00;85.60;;;-151.14;100.00;62537.16;5076489;28;19928;-80
2022/11/24 00:15:07;;;;;;;;;;;6.00;85.50;;;-151.14;100.00;62537.16;5057885;28;19920;-80
2022/11/24 00:17:36;;;;;;;;;;;6.00;85.60;;;-151.14;100.00;62537.16;5075208;28;20208;-80
2022/11/24 00:20:05;;;;;;;;;;;6.00;85.60;;;-151.14;100.00;62537.16;5108788;28;19927;-80
2022/11/24 00:22:33;;;;;;;;;;;6.00;85.60;;;-151.14;100.00;62537.16;5074796;28;19926;-80
2022/11/24 00:25:01;;;;;;;;;;;6.00;85.50;;;-151.14;100.00;62537.16;5094734;28;20349;-80
2022/11/24 00:27:29;;;;;;;;;;;6.00;85.60;;;-151.14;100.00;62537.16;5095067;28;19920;-81
2022/11/24 00:29:58;;;;;;;;;;;6.00;85.60;;;-151.14;100.00;62537.16;5078285;28;19926;-80
2022/11/24 00:32:28;;;;;;;;;;;6.00;85.60;;;-151.14;100.00;62537.16;5078414;28;19920;-80
2022/11/24 00:34:57;;;;;;;;;;;6.00;85.60;;;-151.14;100.00;62537.16;5094449;28;19920;-81
2022/11/24 00:37:25;;;;;;;;;;;6.00;85.60;;;-151.14;100.00;62537.16;5095088;28;20120;-81
2022/11/24 00:39:53;;;;;;;;;;;6.00;85.60;;;-151.14;100.00;62537.16;5094977;28;19926;-80
2022/11/24 00:42:21;;;;;;;;;;;6.00;85.60;;;-151.14;100.00;62537.16;5086883;28;19920;-80
2022/11/24 00:44:48;;;;;;;;;;;6.00;85.60;;;-151.14;100.00;62537.16;5094188;28;19920;-80
2022/11/24 00:47:16;;;;;;;;;;;6.00;85.60;;;-151.14;100.00;62537.16;5095035;28;19919;-80
2022/11/24 00:49:44;;;;;;;;;;;6.00;85.60;;;-151.14;100.00;62537.16;5094981;28;19920;-80
2022/11/24 00:52:14;;;;;;;;;;;6.00;85.60;;;-151.14;100.00;62537.16;5094721;28;19920;-80
2022/11/24 00:54:42;;;;;;;;;;;6.00;85.60;;;-151.14;100.00;62537.16;5111278;28;19942;-80
2022/11/24 00:57:09;;;;;;;;;;;6.00;85.60;;;-151.14;100.00;62537.16;5077882;28;19926;-81
2022/11/24 00:59:37;;;;;;;;;;;6.00;85.60;;;-151.14;100.00;62537.16;5077537;28;19920;-80
2022/11/24 01:02:06;;;;;;;;;;;6.00;85.60;;;-151.14;100.00;62537.16;5077139;28;19919;-81
2022/11/24 01:04:34;;;;;;;;;;;6.00;85.60;;;-151.14;100.00;62537.16;5111564;28;19920;-80
2022/11/24 01:07:02;;;;;;;;;;;6.00;85.60;;;-151.14;100.00;62537.16;5077114;28;19920;-80
2022/11/24 01:09:31;;;;;;;;;;;6.00;85.60;;;-151.14;100.00;62537.16;5077998;28;19920;-80
2022/11/24 01:12:02;;;;;;;;;;;6.00;85.60;;;-151.14;100.00;62537.16;5077737;28;19919;-80
2022/11/24 01:14:31;;;;;;;;;;;6.00;85.70;;;-151.14;100.00;62537.16;5077557;28;20225;-80
2022/11/24 01:16:59;;;;;;;;;;;6.00;85.60;;;-151.14;100.00;62537.16;5094079;28;19920;-80
2022/11/24 01:19:26;;;;;;;;;;;6.00;85.60;;;-151.14;100.00;62537.16;5094021;28;19930;-80
2022/11/24 01:21:54;;;;;;;;;;;6.00;85.60;;;-151.14;100.00;62537.16;5094168;28;19919;-80
2022/11/24 01:24:22;;;;;;;;;;;6.00;85.60;;;-151.14;100.00;62537.16;5077466;28;20212;-80
2022/11/24 01:26:52;;;;;;;;;;;6.00;85.60;;;-151.14;100.00;62537.16;5093763;28;19985;-81
2022/11/24 01:29:20;;;;;;;;;;;6.00;85.60;;;-151.14;100.00;62537.16;5111155;28;20234;-80
2022/11/24 01:31:48;;;;;;;;;;;6.00;85.60;;;-151.14;100.00;62537.16;5077252;28;19926;-81
2022/11/24 01:34:15;;;;;;;;;;;6.00;85.50;;;-151.14;100.00;62537.16;5111841;28;19920;-80
2022/11/24 01:36:43;;;;;;;;;;;6.00;85.50;;;-151.14;100.00;62537.16;5076869;28;19926;-80
2022/11/24 01:39:12;;;;;;;;;;;6.00;85.60;;;-151.14;100.00;62537.16;5077227;28;19926;-80
2022/11/24 01:41:40;;;;;;;;;;;6.00;85.60;;;-151.14;100.00;62537.16;5077166;28;20216;-80
2022/11/24 01:44:23;;;;;;;;;;;6.00;85.60;;;-151.14;100.00;62537.16;5076894;28;19920;-80
2022/11/24 01:46:53;;;;;;;;;;;6.00;85.60;;;-151.14;100.00;62537.16;5093390;28;19919;-80
2022/11/24 01:49:22;;;;;;;;;;;6.00;85.60;;;-151.14;100.00;62537.16;5076771;28;19927;-81
2022/11/24 01:51:52;;;;;;;;;;;6.00;85.60;;;-151.14;100.00;62537.16;5077124;28;19941;-81
2022/11/24 01:54:22;;;;;;;;;;;6.00;85.70;;;-151.14;100.00;62537.16;5093683;28;19919;-80
2022/11/24 01:56:51;;;;;;;;;;;6.00;85.70;;;-151.14;100.00;62537.16;5110329;28;19926;-80
2022/11/24 01:59:19;;;;;;;;;;;6.00;85.70;;;-151.14;100.00;62537.16;5076879;28;19919;-80
2022/11/24 02:01:49;;;;;;;;;;;6.00;85.70;;;-151.14;100.00;62537.16;5093737;28;20226;-80
2022/11/24 02:04:17;;;;;;;;;;;6.00;85.60;;;-151.14;100.00;62537.16;5110403;28;19919;-81
2022/11/24 02:06:45;;;;;;;;;;;6.00;85.70;;;-151.14;100.00;62537.16;5093124;28;19920;-80
2022/11/24 02:09:16;;;;;;;;;;;6.00;85.70;;;-151.14;100.00;62537.16;5111628;28;19920;-81
2022/11/24 02:11:44;;;;;;;;;;;6.00;85.70;;;-151.14;100.00;62537.16;5076600;28;19920;-80
2022/11/24 02:14:12;;;;;;;;;;;6.00;85.70;;;-151.14;100.00;62537.16;5076508;28;19926;-80
2022/11/24 02:16:40;;;;;;;;;;;6.00;85.60;;;-151.14;100.00;62537.16;5076587;28;20238;-80
2022/11/24 02:19:12;;;;;;;;;;;6.00;85.60;;;-151.14;100.00;62537.16;5093223;28;19920;-80
2022/11/24 02:21:40;;;;;;;;;;;6.00;85.70;;;-151.14;100.00;62537.16;5093516;28;20230;-80
2022/11/24 02:24:10;;;;;;;;;;;6.00;85.70;;;-151.14;100.00;62537.16;5080071;28;19920;-80
2022/11/24 02:26:41;;;;;;;;;;;6.00;85.70;;;-151.14;100.00;62537.16;5089325;28;19926;-80
2022/11/24 02:29:10;;;;;;;;;;;6.00;85.70;;;-151.14;100.00;62537.16;5073264;28;19921;-80
2022/11/24 02:31:38;;;;;;;;;;;6.00;85.70;;;-151.14;100.00;62537.16;5073098;28;20097;-80
2022/11/24 02:34:06;;;;;;;;;;;6.00;85.70;;;-151.14;100.00;62537.16;5073370;28;19920;-81
2022/11/24 02:36:34;;;;;;;;;;;6.00;85.60;;;-151.14;100.00;62537.16;5072651;28;19920;-81
2022/11/24 02:39:01;;;;;;;;;;;6.00;85.70;;;-151.14;100.00;62537.16;5073173;28;19920;-80
2022/11/24 02:41:29;;;;;;;;;;;6.00;85.70;;;-151.14;100.00;62537.16;5073019;28;19921;-80
2022/11/24 02:44:00;;;;;;;;;;;6.00;85.70;;;-151.14;100.00;62537.16;5072810;28;19942;-81
2022/11/24 02:46:28;;;;;;;;;;;6.00;85.80;;;-151.14;100.00;62537.16;5089417;28;19920;-81
2022/11/24 02:48:56;;;;;;;;;;;6.00;85.80;;;-151.14;100.00;62537.16;5072570;28;19926;-81
2022/11/24 02:51:23;;;;;;;;;;;6.00;85.80;;;-151.14;100.00;62537.16;5072774;28;19920;-80
2022/11/24 02:53:51;;;;;;;;;;;6.00;85.70;;;-151.14;100.00;62537.16;5072622;28;19934;-80
2022/11/24 02:56:19;;;;;;;;;;;6.00;85.70;;;-151.14;100.00;62537.16;5055761;28;19927;-80
2022/11/24 02:58:47;;;;;;;;;;;6.00;85.80;;;-151.14;100.00;62537.16;5056073;28;19926;-81
2022/11/24 03:01:16;;;;;;;;;;;6.00;85.70;;;-151.14;100.00;62537.16;5089683;28;19920;-81
2022/11/24 03:03:44;;;;;;;;;;;6.00;85.70;;;-151.14;100.00;62537.16;5072558;28;19926;-80
2022/11/24 03:06:12;;;;;;;;;;;6.00;85.70;;;-151.14;100.00;62537.16;5055664;28;19927;-80
2022/11/24 03:08:40;;;;;;;;;;;6.00;85.80;;;-151.14;100.00;62537.16;5072812;28;19942;-80
2022/11/24 03:11:08;;;;;;;;;;;6.00;85.70;;;-151.14;100.00;62537.16;5072581;28;20017;-81
2022/11/24 03:13:36;;;;;;;;;;;6.00;85.80;;;-151.14;100.00;62537.16;5072391;28;19927;-81
2022/11/24 03:16:08;;;;;;;;;;;6.00;85.70;;;-151.14;100.00;62537.16;5072285;28;19921;-81
2022/11/24 03:18:37;;;;;;;;;;;6.00;85.70;;;-151.14;100.00;62537.16;5073393;28;19927;-80
2022/11/24 03:21:06;;;;;;;;;;;6.00;85.70;;;-151.14;100.00;62537.16;5092536;28;19919;-80
2022/11/24 03:23:33;;;;;;;;;;;6.00;85.80;;;-151.14;100.00;62537.16;5076416;28;19941;-81
2022/11/24 03:26:08;;;;;;;;;;;6.00;85.80;;;-151.14;100.00;62537.16;5075747;28;19920;-80
2022/11/24 03:28:36;;;;;;;;;;;6.00;85.80;;;-151.14;100.00;62537.16;5059152;28;19920;-80
2022/11/24 03:31:04;;;;;;;;;;;6.00;85.80;;;-151.14;100.00;62537.16;5093270;28;19920;-81
2022/11/24 03:33:32;;;;;;;;;;;6.00;85.70;;;-151.14;100.00;62537.16;5058018;28;19920;-80
2022/11/24 03:36:02;;;;;;;;;;;6.00;85.90;;;-151.14;100.00;62537.16;5058516;28;19921;-80
2022/11/24 03:38:29;;;;;;;;;;;6.00;85.70;;;-151.14;100.00;62537.16;5075600;28;19920;-80
2022/11/24 03:40:57;;;;;;;;;;;6.00;85.80;;;-151.14;100.00;62537.16;5059011;28;19942;-80
2022/11/24 03:43:25;;;;;;;;;;;6.00;85.70;;;-151.14;100.00;62537.16;5075373;28;19926;-81
2022/11/24 03:45:53;;;;;;;;;;;6.00;85.90;;;-151.14;100.00;62537.16;5075267;28;19927;-81
2022/11/24 03:48:21;;;;;;;;;;;6.00;85.80;;;-151.14;100.00;62537.16;5093454;28;19927;-81
2022/11/24 03:50:53;;;;;;;;;;;6.00;85.90;;;-151.14;100.00;62537.16;5075577;28;20231;-80
2022/11/24 03:53:23;;;;;;;;;;;5.90;85.80;;;-151.14;100.00;62537.16;5058547;28;19921;-81
2022/11/24 03:55:51;;;;;;;;;;;6.00;85.90;;;-151.14;100.00;62537.16;5072835;28;19926;-81
2022/11/24 03:58:19;;;;;;;;;;;6.00;85.80;;;-151.14;100.00;62537.16;5078767;28;20119;-81
2022/11/24 04:00:48;;;;;;;;;;;6.00;85.90;;;-151.14;100.00;62537.16;5095314;28;19919;-81
2022/11/24 04:03:16;;;;;;;;;;;6.00;85.80;;;-151.14;100.00;62537.16;5095318;28;19919;-80
2022/11/24 04:05:44;;;;;;;;;;;6.00;85.70;;;-151.14;100.00;62537.16;5078126;28;19934;-81
2022/11/24 04:08:12;;;;;;;;;;;6.00;85.80;;;-151.14;100.00;62537.16;5095435;28;19926;-81
2022/11/24 04:10:41;;;;;;;;;;;5.90;85.80;;;-151.14;100.00;62537.16;5095612;28;20230;-81
2022/11/24 04:13:10;;;;;;;;;;;6.00;85.80;;;-151.14;100.00;62537.16;5095127;28;19942;-81
2022/11/24 04:15:38;;;;;;;;;;;6.00;85.70;;;-151.14;100.00;62537.16;5112214;28;19920;-80
2022/11/24 04:18:06;;;;;;;;;;;5.90;85.80;;;-151.14;100.00;62537.16;5078503;28;20208;-81
2022/11/24 04:20:34;;;;;;;;;;;6.00;85.80;;;-151.14;100.00;62537.16;5095105;28;20115;-80
2022/11/24 04:23:02;;;;;;;;;;;6.00;85.70;;;-151.14;100.00;62537.16;5095047;28;19920;-80
2022/11/24 04:25:30;;;;;;;;;;;5.90;85.90;;;-151.14;100.00;62537.16;5103912;28;19927;-81
2022/11/24 04:28:00;;;;;;;;;;;6.00;85.80;;;-151.14;100.00;62537.16;5108852;28;19920;-80
2022/11/24 04:30:28;;;;;;;;;;;6.00;85.80;;;-151.14;100.00;62537.16;5091506;28;19926;-80
2022/11/24 04:32:56;;;;;;;;;;;6.00;85.80;;;-151.14;100.00;62537.16;5074905;28;19920;-80
2022/11/24 04:35:24;;;;;;;;;;;6.00;85.90;;;-151.14;100.00;62537.16;5089882;28;19927;-80
2022/11/24 04:37:52;;;;;;;;;;;5.90;85.80;;;-151.14;100.00;62537.16;5091620;28;19927;-80
2022/11/24 04:40:20;;;;;;;;;;;5.90;85.80;;;-151.14;100.00;62537.16;5074624;28;19926;-80
2022/11/24 04:42:53;;;;;;;;;;;6.00;85.90;;;-151.14;100.00;62537.16;5057967;28;19926;-80
2022/11/24 04:45:22;;;;;;;;;;;5.90;85.80;;;-151.14;100.00;62537.16;5092166;28;19926;-81
2022/11/24 04:47:50;;;;;;;;;;;5.90;85.90;;;-151.14;100.00;62537.16;5074867;28;19926;-80
2022/11/24 04:50:18;;;;;;;;;;;5.90;85.80;;;-151.14;100.00;62537.16;5074428;28;19926;-80
2022/11/24 04:52:46;;;;;;;;;;;6.00;86.70;;;-151.14;100.00;62537.16;5057935;28;19919;-80
2022/11/24 04:55:14;;;;;;;;;;;5.90;85.90;;;-151.14;100.00;62537.16;5057355;28;19927;-81
2022/11/24 04:57:42;;;;;;;;;;;5.90;85.90;;;-151.14;100.00;62537.16;5074568;28;19926;-81
2022/11/24 05:00:11;;;;;;;;;;;5.90;85.90;;;-151.14;100.00;62537.16;5092426;28;19920;-81
2022/11/24 05:02:40;;;;;;;;;;;5.90;85.90;;;-151.14;100.00;62537.16;5057571;28;19920;-81
2022/11/24 05:05:09;;;;;;;;;;;5.90;85.90;;;-151.14;100.00;62537.16;5057287;28;19920;-80
2022/11/24 05:07:36;;;;;;;;;;;5.90;85.90;;;-151.14;100.00;62537.16;5074182;28;19927;-81
2022/11/24 05:12:54;;;;;;;;;;;5.90;85.90;;;-151.14;100.00;62537.16;5091098;28;19986;-80
2022/11/24 05:15:22;;;;;;;;;;;5.90;85.90;;;-151.14;100.00;62537.16;5073830;28;19920;-81
2022/11/24 05:17:51;;;;;;;;;;;5.90;85.90;;;-151.14;100.00;62537.16;5074235;28;19928;-80
2022/11/24 05:20:19;;;;;;;;;;;5.90;85.90;;;-151.14;100.00;62537.16;5092384;28;19921;-80
2022/11/24 05:22:47;;;;;;;;;;;5.90;85.90;;;-151.14;100.00;62537.16;5073970;28;19942;-80
2022/11/24 05:25:15;;;;;;;;;;;5.90;85.90;;;-151.14;100.00;62537.16;5073510;28;19926;-81
2022/11/24 05:27:43;;;;;;;;;;;5.90;85.90;;;-151.14;100.00;62537.16;5074015;28;20119;-80
2022/11/24 05:30:12;;;;;;;;;;;5.90;85.90;;;-151.14;100.00;62537.16;5057175;28;20131;-80
2022/11/24 05:32:40;;;;;;;;;;;5.90;85.90;;;-151.14;100.00;62537.16;5074040;28;20212;-81
2022/11/24 05:35:09;;;;;;;;;;;5.90;85.90;;;-151.14;100.00;62537.16;5090369;28;19920;-80
2022/11/24 05:37:37;;;;;;;;;;;5.90;86.00;;;-151.14;100.00;62537.16;5077054;28;19926;-80
2022/11/24 05:40:06;;;;;;;;;;;5.90;85.90;;;-151.14;100.00;62537.16;5094151;28;19927;-80
2022/11/24 05:42:40;;;;;;;;;;;5.90;86.00;;;-151.14;100.00;62537.16;5077314;28;19919;-80
2022/11/24 05:45:10;;;;;;;;;;;5.90;86.00;;;-151.14;100.00;62537.16;5076731;28;19919;-81
2022/11/24 05:47:38;;;;;;;;;;;5.90;85.90;;;-151.14;100.00;62537.16;5076599;28;19920;-81
2022/11/24 05:50:06;;;;;;;;;;;5.90;86.10;;;-151.14;100.00;62537.16;5110717;28;19934;-80
2022/11/24 05:52:36;;;;;;;;;;;5.90;85.90;;;-151.14;100.00;62537.16;5093738;28;19927;-81
2022/11/24 05:55:04;;;;;;;;;;;5.90;85.90;;;-151.14;100.00;62537.16;5076546;28;19934;-81
2022/11/24 05:57:32;;;;;;;;;;;5.90;85.90;;;-151.14;100.00;62537.16;5093971;28;20097;-80
2022/11/24 06:00:00;;;;;;;;;;;5.90;85.90;;;-151.14;100.00;62537.16;5093685;28;19920;-80
2022/11/24 06:02:28;;;;;;;;;;;5.90;85.90;;;-151.14;100.00;62537.16;5077006;28;20135;-81
2022/11/24 06:04:56;;;;;;;;;;;5.90;85.90;;;-151.14;100.00;62537.16;5110241;28;19927;-80
2022/11/24 06:07:24;;;;;;;;;;;5.90;86.00;;;-151.14;100.00;62537.16;5093363;28;19924;-80
2022/11/24 06:09:53;;;;;;;;;;;5.90;85.90;;;-151.14;100.00;62537.16;5110532;28;20115;-80
2022/11/24 06:12:21;;;;;;;;;;;5.90;85.90;;;-151.14;100.00;62537.16;5110734;28;19926;-80
2022/11/24 06:14:49;;;;;;;;;;;5.90;85.90;;;-151.14;100.00;62537.16;5076348;28;19926;-81
2022/11/24 06:17:17;;;;;;;;;;;5.90;85.90;;;-151.14;100.00;62537.16;5093512;28;19920;-80
2022/11/24 06:19:48;;;;;;;;;;;5.90;85.90;;;-151.14;100.00;62537.16;5093401;28;19926;-80
2022/11/24 06:22:17;;;;;;;;;;;6.00;85.80;;;-151.14;100.00;62537.16;5090390;28;19920;-81
2022/11/24 06:24:46;;;;;;;;;;;6.00;85.90;;;-151.14;100.00;62537.16;5076277;28;19919;-80
2022/11/24 06:27:15;;;;;;;;;;;6.00;85.90;;;-151.14;100.00;62537.16;5093470;28;19924;-80
2022/11/24 06:29:43;;;;;;;;;;;6.00;85.90;;;-151.14;100.00;62537.16;5093192;28;19920;-80
2022/11/24 06:32:11;;;;;;;;;;;6.00;85.90;;;-151.14;100.00;62537.16;5093449;28;20237;-80
2022/11/24 06:34:39;;;;;;;;;;;6.00;85.80;;;-151.14;100.00;62537.16;5093220;28;19920;-80
2022/11/24 06:37:07;;;;;;;;;;;6.00;85.80;;;-151.14;100.00;62537.16;5093045;28;19919;-80
2022/11/24 06:39:35;;;;;;;;;;;6.00;85.80;;;-151.14;100.00;62537.16;5076516;28;19919;-81
2022/11/24 06:42:03;;;;;;;;;;;6.00;85.80;;;-151.14;100.00;62537.16;5076655;28;20123;-80
2022/11/24 06:44:32;;;;;;;;;;;6.00;85.80;;;-151.14;100.00;62537.16;5076280;28;20105;-81
2022/11/24 06:47:00;;;;;;;;;;;6.00;85.80;;;-151.14;100.00;62537.16;5092836;28;19926;-80
2022/11/24 06:49:28;;;;;;;;;;;6.00;85.80;;;-151.14;100.00;62537.16;5093087;28;19919;-80
2022/11/24 06:51:56;;;;;;;;;;;6.00;85.70;;;-151.14;100.00;62537.16;5093129;28;19926;-81
2022/11/24 06:54:24;;;;;;;;;;;6.00;85.80;;;-151.14;100.00;62537.16;5092937;28;19920;-80
2022/11/24 06:56:56;;;;;;;;;;;6.00;85.70;;;-151.14;100.00;62537.16;5075888;28;19920;-80
2022/11/24 06:59:25;;;;;;;;;;;6.00;85.70;;;-151.14;100.00;62537.16;5094816;28;19920;-80
2022/11/24 07:01:54;;;;;;;;;;;6.00;85.70;;;-151.14;100.00;62537.16;5079670;28;19920;-80
2022/11/24 07:04:22;;;;;;;;;;;6.00;85.70;;;-151.14;100.00;62537.16;5096455;28;20097;-80
2022/11/24 07:06:50;;;;;;;;;;;6.00;85.80;;;-151.14;100.00;62537.16;5079062;28;20208;-80
2022/11/24 07:09:18;;;;;;;;;;;6.00;85.70;;;-151.14;100.00;62537.16;5096366;28;19927;-81
2022/11/24 07:11:46;;;;;;;;;;;6.00;85.70;;;-151.14;100.00;62537.16;5114358;28;19927;-80
2022/11/24 07:14:14;;;;;;;;;;;6.00;85.80;;;-151.14;100.00;62537.16;5096169;28;19926;-80
2022/11/24 07:16:42;;;;;;;;;;;6.00;85.70;;;-151.14;100.00;62537.16;5112979;28;19928;-80
2022/11/24 07:19:11;;;;;;;;;;;6.00;85.70;;;-151.14;100.00;62537.16;5096547;28;19942;-80
2022/11/24 07:21:39;;;;;;;;;;;6.00;85.70;;;-151.14;100.00;62537.16;5096211;28;19926;-80
2022/11/24 07:24:07;;;;;;;;;;;6.00;85.90;;;-151.14;100.00;62537.16;5112996;28;19919;-80
2022/11/24 07:26:36;;;;;;;;;;;6.00;85.90;;;-151.14;100.00;62537.16;5095836;28;19923;-81
2022/11/24 07:29:04;;;;;;;;;;;6.00;85.90;;;-151.14;100.00;62537.16;5095973;28;20220;-81
2022/11/24 07:31:32;;;;;;;;;;;6.00;85.80;;;-151.14;100.00;62537.16;5096194;28;19926;-80
2022/11/24 07:34:00;;;;;;;;;;;6.00;85.80;;;-151.14;100.00;62537.16;5095779;28;19920;-80
2022/11/24 07:36:29;;;;;;;;;;;6.00;86.00;;;-151.14;100.00;62537.16;5078862;28;19985;-80
2022/11/24 07:38:57;;;;;;;;;;;5.90;85.90;;;-151.14;100.00;62537.16;5079147;28;19926;-80
2022/11/24 07:41:25;;;;;;;;;;;6.00;85.90;;;-151.14;100.00;62537.16;5096070;28;19921;-81
2022/11/24 07:43:53;;;;;;;;;;;6.00;85.90;;;-151.14;100.00;62537.16;5095593;28;19920;-80
2022/11/24 07:46:21;;;;;;;;;;;6.00;85.90;;;-151.14;100.00;62537.16;5095323;28;20127;-80
2022/11/24 07:48:49;;;;;;;;;;;6.00;85.90;;;-151.14;100.00;62537.16;5095665;28;20124;-81
2022/11/24 07:51:17;;;;;;;;;;;6.00;85.90;;;-151.14;100.00;62537.16;5112710;28;20203;-81
2022/11/24 07:53:46;;;;;;;;;;;6.00;85.90;;;-151.14;100.00;62537.16;5095531;28;19926;-81
2022/11/24 07:56:14;;;;;;;;;;;5.90;85.90;;;-151.14;100.00;62537.16;5078712;28;19920;-80
2022/11/24 07:58:42;;;;;;;;;;;6.00;85.90;;;-151.14;100.00;62537.16;5078777;28;19920;-80
2022/11/24 08:01:11;;;;;;;;;;;6.00;85.90;;;-151.14;100.00;62537.16;5079036;28;19920;-80
2022/11/24 08:03:39;;;;;;;;;;;6.00;85.90;;;-151.14;100.00;62537.16;5078324;28;19941;-81
2022/11/24 08:06:07;;;;;;;;;;;6.00;85.90;;;-151.14;100.00;62537.16;5095124;28;19920;-80
2022/11/24 08:08:35;;;;;;;;;;;6.00;85.90;;;-151.14;100.00;62537.16;5112318;28;20098;-80
2022/11/24 08:11:09;;;;;;;;;;;6.00;85.90;;;-151.14;100.00;62537.16;5078604;28;19926;-80
2022/11/24 08:13:37;;;;;;;;;;;6.00;85.90;;;-151.14;100.00;62537.16;5078181;28;19920;-80
2022/11/24 08:16:06;;;;;;;;;;;6.00;85.90;;;-151.14;100.00;62537.16;5095154;28;20123;-81
2022/11/24 08:18:34;;;;;;;;;;;6.00;85.90;;;-151.14;100.00;62537.16;5094069;28;19927;-81
2022/11/24 08:21:02;;;;;;;;;;;6.00;85.90;;;-151.14;100.00;62537.16;5058350;28;19942;-81
2022/11/24 08:23:30;;;;;;;;;;;6.00;85.90;;;-151.14;100.00;62537.16;5074888;28;19927;-81
2022/11/24 08:26:03;;;;;;;;;;;6.00;85.90;;;-151.14;100.00;62537.16;5091430;28;20235;-81
2022/11/24 08:28:33;;;;;;;;;;;6.00;85.90;;;-151.14;100.00;62537.16;5058263;28;19924;-81
2022/11/24 08:31:03;;;;;;;;;;;5.90;86.00;;;-151.14;100.00;62537.16;5108696;28;20208;-80
2022/11/24 08:33:31;;;;;;;;;;;5.90;85.90;;;-151.14;100.00;62537.16;5075049;28;19921;-80
2022/11/24 08:36:03;;;;;;;;;;;5.90;85.90;;;-151.14;100.00;62537.16;5108332;28;20120;-80
2022/11/24 08:38:31;;;;;;;;;;;6.00;86.00;;;-151.14;100.00;62537.16;5074967;28;19924;-81
2022/11/24 08:41:02;;;;;;;;;;;6.00;85.90;;;-151.14;100.00;62537.16;5075051;28;19927;-81
2022/11/24 08:43:30;;;;;;;;;;;6.00;85.90;;;-151.14;100.00;62537.16;5108207;28;20234;-81
2022/11/24 08:46:01;;;;;;;;;;;6.00;85.90;;;-151.14;100.00;62537.16;5057782;28;20234;-80
2022/11/24 08:48:29;;;;;;;;;;;6.00;85.90;;;-151.14;100.00;62537.16;5074723;28;19920;-80
2022/11/24 08:50:57;;;;;;;;;;;5.90;85.90;;;-151.14;100.00;62537.16;5091297;28;20208;-80
2022/11/24 08:53:24;;;;;;;;;;;5.90;85.90;;;-151.14;100.00;62537.16;5091080;28;20120;-80
2022/11/24 08:55:52;;;;;;;;;;;6.00;85.90;;;-151.14;100.00;62537.16;5108035;28;19942;-80
2022/11/24 08:58:20;;;;;;;;;;;5.90;86.00;;;-151.14;100.00;62537.16;5058020;28;19920;-81
2022/11/24 09:00:48;;;;;;;;;;;6.00;85.90;;;-151.14;100.00;62537.16;5108227;28;19927;-81
2022/11/24 09:03:18;;;;;;;;;;;6.00;85.90;;;-151.14;100.00;62537.16;5057657;28;19927;-80
2022/11/24 09:05:46;;;;;;;;;;;5.90;85.90;;;-151.14;100.00;62537.16;5087061;28;20237;-81
2022/11/24 09:08:13;;;;;;;;;;;6.00;85.90;;;-151.14;100.00;62537.16;5077537;28;20212;-80
2022/11/24 09:10:41;;;;;;;;;;;5.90;85.90;;;-151.14;100.00;62537.16;5112555;28;20212;-81
2022/11/24 09:13:09;;;;;;;;;;;6.00;85.90;;;-151.14;100.00;62537.16;5077679;28;19926;-81
2022/11/24 09:15:37;;;;;;;;;;;5.90;85.90;;;-151.14;100.00;62537.16;5094087;28;19926;-81
2022/11/24 09:18:05;;;;;;;;;;;5.90;85.90;;;-151.14;100.00;62537.16;5094460;28;19920;-81
2022/11/24 09:20:35;;;;;;;;;;;5.90;85.90;;;-151.14;100.00;62537.16;5094402;28;19920;-81
2022/11/24 09:23:03;;;;;;;;;;;5.90;86.00;;;-151.14;100.00;62537.16;5076935;28;19920;-80
2022/11/24 09:25:31;;;;;;;;;;;5.90;85.90;;;-151.14;100.00;62537.16;5093989;28;19930;-81
2022/11/24 09:27:59;;;;;;;;;;;5.90;85.90;;;-151.14;100.00;62537.16;5077758;28;20222;-81
2022/11/24 09:30:27;;;;;;;;;;;6.00;86.00;;;-151.14;100.00;62537.16;5077068;28;20230;-80
2022/11/24 09:32:55;;;;;;;;;;;6.00;85.90;;;-151.14;100.00;62537.16;5077695;28;19926;-80
2022/11/24 09:35:23;;;;;;;;;;;5.90;85.90;;;-151.14;100.00;62537.16;5093616;28;20096;-80
2022/11/24 09:37:52;;;;;;;;;;;5.90;85.90;;;-151.14;100.00;62537.16;5094041;28;20093;-81
2022/11/24 09:40:21;;;;;;;;;;;6.00;85.90;;;-151.14;100.00;62537.16;5112152;28;19919;-81
2022/11/24 09:42:53;;;;;;;;;;;5.90;85.90;;;-151.14;100.00;62537.16;5094157;28;19919;-81
2022/11/24 09:45:26;;;;;;;;;;;5.90;85.90;;;-151.14;100.00;62537.16;5093356;28;20212;-80
2022/11/24 09:47:57;;;;;;;;;;;6.00;85.90;;;-151.14;100.00;62537.16;5093622;28;19920;-80
2022/11/24 09:50:26;;;;;;;;;;;6.00;85.90;;;-151.14;100.00;62537.16;5077064;28;19920;-80
2022/11/24 09:53:00;;;;;;;;;;;6.00;85.90;;;-151.14;100.00;62537.16;5093891;28;19919;-80
2022/11/24 09:55:34;;;;;;;;;;;6.00;85.80;;;-151.14;100.00;62537.16;5076647;28;19920;-80
2022/11/24 09:58:09;;;;;;;;;;;5.90;85.90;;;-151.14;100.00;62537.16;5093649;28;20212;-80
2022/11/24 10:00:38;;;;;;;;;;;5.90;85.90;;;-151.14;100.00;62537.16;5093897;28;19920;-80
2022/11/24 10:03:06;;;;;;;;;;;6.00;85.90;;;-151.14;100.00;62537.16;5093567;28;19920;-81
2022/11/24 10:05:34;;;;;;;;;;;6.00;85.80;;;-151.14;100.00;62537.16;5090506;28;20238;-80
2022/11/24 10:08:10;;;;;;;;;;;6.00;85.80;;;-151.14;100.00;62537.16;5073353;28;19926;-80
2022/11/24 10:10:43;;;;;;;;;;;5.90;85.90;;;-151.14;100.00;62537.16;5073547;28;19927;-81
2022/11/24 10:13:18;;;;;;;;;;;5.90;85.90;;;-151.14;100.00;62537.16;5056632;28;19920;-81
2022/11/24 10:15:47;;;;;;;;;;;6.00;85.90;;;-151.14;100.00;62537.16;5073236;28;20097;-80
2022/11/24 10:18:37;;;;;;;;;;;6.00;85.80;;;-151.14;100.00;62537.16;5073251;28;20227;-80
2022/11/24 10:21:16;;;;;;;;;;;6.00;85.80;;;-151.14;100.00;62537.16;5091513;28;19920;-80
2022/11/24 10:24:00;;;;;;;;;;;5.90;85.90;;;-151.14;100.00;62537.16;5056174;28;19926;-81
2022/11/24 10:26:33;;;;;;;;;;;6.00;85.80;;;-151.14;100.00;62537.16;5106697;28;19920;-80
2022/11/24 10:29:01;;;;;;;;;;;5.90;85.80;;;-151.14;100.00;62537.16;5056600;28;20234;-81
2022/11/24 10:31:30;;;;;;;;;;;5.90;85.80;;;-151.14;100.00;62537.16;5056425;28;19920;-80
2022/11/24 10:33:58;;;;;;;;;;;6.00;85.80;;;-151.14;100.00;62537.16;5075661;28;20238;-80
2022/11/24 10:36:29;;;;;;;;;;;6.00;85.80;;;-151.14;100.00;62537.16;5076329;28;19928;-80
2022/11/24 10:39:01;;;;;;;;;;;5.90;85.90;;;-151.14;100.00;62537.16;5076687;28;19943;-81
2022/11/24 10:41:36;;;;;;;;;;;5.90;85.90;;;-151.14;100.00;62537.16;5094815;28;20204;-80
2022/11/24 10:44:05;;;;;;;;;;;5.90;85.90;;;-151.14;100.00;62537.16;5109955;28;19942;-80
2022/11/24 10:46:32;;;;;;;;;;;5.90;85.80;;;-151.14;100.00;62537.16;5076285;28;19920;-81
2022/11/24 10:49:02;;;;;;;;;;;5.90;85.80;;;-151.14;100.00;62537.16;5076738;28;19920;-80
2022/11/24 10:51:38;;;;;;;;;;;5.90;85.90;;;-151.14;100.00;62537.16;5093277;28;20239;-80
2022/11/24 10:54:13;;;;;;;;;;;6.00;85.90;;;-151.14;100.00;62537.16;5076488;28;19920;-81
2022/11/24 10:56:41;;;;;;;;;;;5.90;85.90;;;-151.14;100.00;62537.16;5059527;28;20265;-80
2022/11/24 10:59:29;;;;;;;;;;;5.90;85.90;;;-151.14;100.00;62537.16;5110226;28;19927;-80
2022/11/24 11:01:56;;;;;;;;;;;5.90;85.80;;;-151.14;100.00;62537.16;5110002;28;20068;-80
2022/11/24 11:04:26;;;;;;;;;;;5.90;85.90;;;-151.14;100.00;62537.16;5076189;28;19926;-80
2022/11/24 11:07:07;;;;;;;;;;;6.00;85.80;;;-151.14;100.00;62537.16;5092654;28;19921;-80
2022/11/24 11:09:37;;;;;;;;;;;6.00;85.80;;;-151.14;100.00;62537.16;5093989;28;19927;-80
2022/11/24 11:12:12;;;;;;;;;;;5.90;85.90;;;-151.14;100.00;62537.16;5092943;28;19920;-80